createdAt,value
2023-02-09T00:02:42.725Z,6.78
2023-02-09T00:07:45.829Z,5.80
2023-02-09T00:13:06.205Z,5.82
2023-02-09T00:18:10.671Z,6.25
2023-02-09T00:23:13.771Z,6.18
2023-02-09T00:28:16.942Z,6.78
2023-02-09T00:33:21.482Z,6.07
2023-02-09T00:38:24.520Z,5.28
2023-02-09T00:43:27.600Z,6.80
2023-02-09T00:48:32.366Z,6.35
2023-02-09T00:53:35.434Z,5.55
2023-02-09T00:58:38.511Z,6.80
2023-02-09T01:03:43.000Z,7.07
2023-02-09T01:08:46.142Z,6.05
2023-02-09T01:13:49.481Z,7.00
2023-02-09T01:18:54.076Z,6.28
2023-02-09T01:23:58.141Z,5.68
2023-02-09T01:29:01.246Z,5.90
2023-02-09T01:34:05.753Z,6.07
2023-02-09T01:39:09.203Z,6.00
2023-02-09T01:44:30.843Z,6.55
2023-02-09T01:49:35.386Z,6.53
2023-02-09T01:54:40.623Z,6.45
2023-02-09T01:59:44.977Z,5.45
2023-02-09T02:04:49.873Z,5.63
2023-02-09T02:09:53.425Z,4.97
2023-02-09T02:14:56.583Z,6.35
2023-02-09T02:20:23.688Z,5.80
2023-02-09T02:26:00.219Z,5.55
2023-02-09T02:31:16.330Z,5.45
2023-02-09T02:36:26.966Z,5.63
2023-02-09T02:41:53.675Z,5.28
2023-02-09T02:46:59.593Z,6.03
2023-02-09T02:52:05.982Z,5.28
2023-02-09T02:57:11.365Z,5.10
2023-02-09T03:02:16.307Z,5.85
2023-02-09T03:07:20.749Z,5.40
2023-02-09T03:12:26.981Z,5.07
2023-02-09T03:17:34.802Z,5.13
2023-02-09T03:22:40.147Z,6.53
2023-02-09T03:27:46.095Z,5.78
2023-02-09T03:32:49.508Z,5.90
2023-02-09T03:37:53.943Z,6.07
2023-02-09T03:42:57.049Z,6.32
2023-02-09T03:48:00.172Z,5.90
2023-02-09T03:53:06.553Z,5.45
2023-02-09T03:58:09.680Z,5.50
2023-02-09T04:03:12.760Z,5.95
2023-02-09T04:08:17.229Z,5.82
2023-02-09T04:13:20.386Z,6.30
2023-02-09T04:18:23.480Z,5.63
2023-02-09T04:23:27.958Z,5.93
2023-02-09T04:28:31.194Z,6.35
2023-02-09T04:33:34.543Z,6.47
2023-02-09T04:38:39.173Z,6.07
2023-02-09T04:43:42.397Z,6.13
2023-02-09T04:48:45.722Z,5.68
2023-02-09T04:53:50.195Z,5.90
2023-02-09T04:59:19.149Z,5.95
2023-02-09T05:04:22.259Z,6.55
2023-02-09T05:09:26.720Z,6.93
2023-02-09T05:14:29.834Z,6.07
2023-02-09T05:19:32.946Z,7.45
2023-02-09T05:24:37.357Z,6.35
2023-02-09T05:29:40.486Z,6.75
2023-02-09T05:34:43.563Z,6.80
2023-02-09T05:39:48.002Z,6.88
2023-02-09T05:44:51.741Z,5.85
2023-02-09T05:49:54.888Z,6.35
2023-02-09T05:54:59.377Z,6.40
2023-02-09T06:00:02.540Z,7.88
2023-02-09T06:05:14.886Z,7.32
2023-02-09T06:10:19.529Z,7.32
2023-02-09T06:15:22.652Z,7.45
2023-02-09T06:20:25.781Z,6.93
2023-02-09T06:25:30.415Z,7.13
2023-02-09T06:30:33.530Z,6.63
2023-02-09T06:35:36.808Z,6.85
2023-02-09T06:40:41.320Z,6.68
2023-02-09T06:45:44.409Z,6.68
2023-02-09T06:50:48.013Z,6.63
2023-02-09T06:55:52.707Z,7.60
2023-02-09T07:00:55.834Z,7.45
2023-02-09T07:06:03.900Z,7.60
2023-02-09T07:11:09.726Z,7.20
2023-02-09T07:16:13.275Z,7.63
2023-02-09T07:21:18.676Z,7.40
2023-02-09T07:26:23.285Z,7.35
2023-02-09T07:31:27.355Z,8.15
2023-02-09T07:36:30.789Z,7.85
2023-02-09T07:41:35.350Z,7.30
2023-02-09T07:46:38.738Z,8.18
2023-02-09T07:51:42.099Z,8.77
2023-02-09T07:56:47.209Z,8.15
2023-02-09T08:01:51.855Z,8.18
2023-02-09T08:06:56.033Z,9.27
2023-02-09T08:12:03.243Z,8.18
2023-02-09T08:17:21.455Z,8.13
2023-02-09T08:22:26.347Z,7.45
2023-02-09T08:27:31.289Z,8.20
2023-02-09T08:32:34.575Z,8.25
2023-02-09T08:37:37.907Z,8.77
2023-02-09T08:42:42.507Z,8.25
2023-02-09T08:47:45.626Z,8.15
2023-02-09T08:52:49.080Z,8.25
2023-02-09T08:57:53.763Z,8.27
2023-02-09T09:02:57.005Z,8.98
2023-02-09T09:08:00.417Z,7.75
2023-02-09T09:13:05.232Z,8.82
2023-02-09T09:18:08.306Z,9.10
2023-02-09T09:23:11.874Z,8.52
2023-02-09T09:28:16.837Z,8.43
2023-02-09T09:33:20.553Z,8.35
2023-02-09T09:38:23.752Z,9.55
2023-02-09T09:43:30.588Z,8.32
2023-02-09T09:48:39.242Z,9.07
2023-02-09T09:53:44.787Z,9.07
2023-02-09T09:58:50.046Z,9.38
2023-02-09T10:03:53.251Z,9.98
2023-02-09T10:08:58.634Z,9.48
2023-02-09T10:14:03.251Z,9.45
2023-02-09T10:19:17.753Z,10.45
2023-02-09T10:24:22.743Z,8.63
2023-02-09T10:29:27.335Z,8.80
2023-02-09T10:34:32.777Z,10.50
2023-02-09T10:39:36.551Z,9.23
2023-02-09T10:44:41.164Z,9.05
2023-02-09T10:49:44.397Z,9.20
2023-02-09T10:54:49.875Z,9.20
2023-02-09T10:59:55.249Z,9.73
2023-02-09T11:04:58.625Z,9.68
2023-02-09T11:10:03.483Z,9.93
2023-02-09T11:15:15.050Z,10.32
2023-02-09T11:20:24.576Z,10.40
2023-02-09T11:25:29.979Z,10.07
2023-02-09T11:30:43.782Z,10.43
2023-02-09T11:35:51.889Z,11.00
2023-02-09T11:40:56.521Z,10.32
2023-02-09T11:46:04.108Z,10.05
2023-02-09T11:51:08.712Z,9.95
2023-02-09T11:56:13.282Z,10.63
2023-02-09T12:01:31.001Z,11.45
2023-02-09T12:06:37.075Z,11.00
2023-02-09T12:11:46.298Z,10.80
2023-02-09T12:16:54.915Z,12.48
2023-02-09T12:21:58.080Z,11.57
2023-02-09T12:27:01.377Z,11.98
2023-02-09T12:32:39.168Z,12.27
2023-02-09T12:38:07.343Z,12.57
2023-02-09T12:43:28.463Z,13.10
2023-02-09T12:53:48.138Z,12.15
2023-02-09T12:58:55.686Z,13.52
2023-02-09T13:04:01.995Z,12.95
2023-02-09T13:09:10.335Z,13.20
2023-02-09T13:14:15.717Z,13.48
2023-02-09T13:19:27.558Z,13.80
2023-02-09T13:24:40.341Z,14.60
2023-02-09T13:29:49.003Z,11.30
2023-02-09T13:34:56.915Z,15.77
2023-02-09T13:40:02.353Z,14.35
2023-02-09T13:45:17.495Z,14.90
2023-02-09T13:50:21.628Z,15.23
2023-02-09T13:55:27.494Z,15.88
2023-02-09T14:00:37.295Z,15.63
2023-02-09T14:05:42.114Z,14.95
2023-02-09T14:10:51.591Z,15.05
2023-02-09T14:16:09.633Z,16.02
2023-02-09T14:21:17.774Z,15.30
2023-02-09T14:26:26.988Z,15.30
2023-02-09T14:31:30.298Z,14.93
2023-02-09T14:36:36.313Z,15.43
2023-02-09T14:41:41.230Z,15.85
2023-02-09T14:46:51.782Z,14.90
2023-02-09T14:52:01.532Z,16.65
2023-02-09T14:57:06.401Z,16.55
2023-02-09T15:02:16.779Z,16.83
2023-02-09T15:07:20.984Z,11.80
2023-02-09T15:12:27.027Z,17.35
2023-02-09T15:17:31.723Z,16.67
2023-02-09T15:22:34.987Z,16.33
2023-02-09T15:27:42.419Z,16.88
2023-02-09T15:32:46.077Z,16.75
2023-02-09T15:37:50.564Z,17.65
2023-02-09T15:43:12.840Z,16.98
2023-02-09T15:48:16.274Z,17.73
2023-02-09T15:53:21.471Z,18.02
2023-02-09T15:58:28.512Z,18.48
2023-02-09T16:03:32.580Z,18.80
2023-02-09T16:08:37.518Z,18.35
2023-02-09T16:13:42.135Z,19.02
2023-02-09T16:18:45.647Z,19.65
2023-02-09T16:23:49.157Z,18.60
2023-02-09T16:28:54.074Z,19.70
2023-02-09T16:33:57.714Z,20.38
2023-02-09T16:39:00.913Z,19.50
2023-02-09T16:44:13.689Z,19.30
2023-02-09T16:49:32.666Z,19.80
2023-02-09T16:54:40.167Z,20.40
2023-02-09T16:59:45.077Z,19.92
2023-02-09T17:04:48.252Z,17.42
2023-02-09T17:09:51.441Z,20.02
2023-02-09T17:14:56.155Z,21.02
2023-02-09T17:20:00.752Z,20.00
2023-02-09T17:25:03.987Z,20.70
2023-02-09T17:30:09.744Z,19.95
2023-02-09T17:35:17.263Z,19.50
2023-02-09T17:40:21.606Z,20.20
2023-02-09T17:45:28.367Z,21.17
2023-02-09T17:50:31.668Z,21.40
2023-02-09T17:55:35.074Z,23.00
2023-02-09T18:00:40.226Z,22.67
2023-02-09T18:05:44.226Z,22.13
2023-02-09T18:10:47.889Z,22.65
2023-02-09T18:15:52.987Z,22.65
2023-02-09T18:20:56.361Z,20.83
2023-02-09T18:25:59.640Z,20.92
2023-02-09T18:31:06.634Z,26.27
2023-02-09T18:36:10.281Z,23.35
2023-02-09T18:41:13.665Z,25.38
2023-02-09T18:46:19.878Z,26.35
2023-02-09T18:51:23.066Z,29.05
2023-02-09T18:56:28.477Z,25.67
2023-02-09T19:01:33.362Z,25.48
2023-02-09T19:06:36.709Z,22.88
2023-02-09T19:11:39.927Z,32.25
2023-02-09T19:16:45.826Z,26.17
2023-02-09T19:21:52.070Z,24.30
2023-02-09T19:26:56.153Z,24.83
2023-02-09T19:32:01.306Z,24.63
2023-02-09T19:37:05.656Z,24.20
2023-02-09T19:42:09.294Z,24.90
2023-02-09T19:47:13.906Z,24.17
2023-02-09T19:52:17.042Z,25.92
2023-02-09T19:57:20.481Z,22.75
2023-02-09T20:02:25.297Z,25.27
2023-02-09T20:07:28.495Z,23.33
2023-02-09T20:12:32.834Z,24.25
2023-02-09T20:17:37.425Z,24.80
2023-02-09T20:22:40.772Z,22.80
2023-02-09T20:27:44.229Z,21.08
2023-02-09T20:32:49.077Z,24.33
2023-02-09T20:37:53.055Z,25.30
2023-02-09T20:43:13.777Z,25.35
2023-02-09T20:48:19.673Z,22.00
2023-02-09T20:53:23.436Z,24.92
2023-02-09T20:58:26.716Z,22.73
2023-02-09T21:03:31.381Z,24.98
2023-02-09T21:08:36.144Z,24.52
2023-02-09T21:13:41.234Z,23.73
2023-02-09T21:18:45.882Z,23.75
2023-02-09T21:23:49.391Z,24.45
2023-02-09T21:28:57.028Z,26.63
2023-02-09T21:34:01.719Z,31.65
2023-02-09T21:39:05.067Z,26.92
2023-02-09T21:44:09.924Z,28.05
2023-02-09T21:49:14.744Z,25.48
2023-02-09T21:54:18.936Z,24.60
2023-02-09T21:59:22.422Z,23.23
2023-02-09T22:04:27.389Z,23.08
2023-02-09T22:09:30.676Z,22.02
2023-02-09T22:14:33.980Z,21.90
2023-02-09T22:19:38.993Z,22.08
2023-02-09T22:24:42.217Z,23.42
2023-02-09T22:29:46.416Z,22.02
2023-02-09T22:34:50.882Z,21.83
2023-02-09T22:39:53.958Z,22.23
2023-02-09T22:44:57.089Z,23.60
2023-02-09T22:50:01.554Z,24.63
2023-02-09T22:55:04.820Z,25.20
2023-02-09T23:00:10.783Z,24.60
2023-02-09T23:05:15.433Z,23.52
2023-02-09T23:10:18.588Z,23.80
2023-02-09T23:15:21.695Z,23.33
2023-02-09T23:20:26.189Z,21.92
2023-02-09T23:25:29.327Z,24.35
2023-02-09T23:30:32.440Z,23.55
2023-02-09T23:35:39.158Z,24.73
2023-02-09T23:40:42.277Z,23.42
2023-02-09T23:45:45.386Z,22.88
2023-02-09T23:50:49.846Z,22.92
2023-02-09T23:55:53.316Z,22.02
